York, New York
Current Conditions -  °F | °C
As of 1:54 AM on Saturday 25 Oct 2014 (Local Time) from KROC Reporting Station
Overcast Overcast  
Wind Chill: 45°   Ceiling: 6500
Heat Index: 47°   Visibility: 8mi
Dew Point: 44°   Wind: 5mph
Humidity: 90%   Direction: 250°WSW
Pressure: 29.91"   Gusts: NA
Location:  42.87°N, 77.89°W
Report Text: KROC 250554Z 25004KT 8SM FEW039 OVC065 08/07 A2991 RMK AO2 SLP131 T00830067 10094 20061 56008
Loading
Personal Weather Stations






























Interactive Weather Map
Tropical Storm Tracking
New forecast layout! Learn more

10-Day Weather Forecast

Advertisements
Track Severe Weather on mobile